KesKeCes ? 


🌎 Northolt

Northolt se situe en Angleterre   Northolt
Heure Locale à Northolt -->
Fuseau Horaire : Gmt + 00 h 00
Time Zone : Europe/London
Coefficient de Marée :       53/53
22 h 53 m 23 s
Jeudi 8 Décembre 2016


   Durée du Jour : 07h58
11 h 53
Zénit
-1 minute de Soleil     Jour de Lune : 9
Lever: 13h07
Coucher: 0h15
Premier Quartier
67.6 %

07 h 15
Aurore

07 h 54
Lever

15 h 52
Coucher

16 h 32
Crépuscule


Latitude :

51.5333330
51°31‘59"N

Longitude :-0.3666670
-0°22‘0"E
Altitude :      34 mètres - 112 pieds

UFI :      -2604349
UNI :     -3581166
MGRS : 30UXC8263912423
JOG :     NM30-03

Changement de Vue
Carte Satellite

Les villes les plus proches :

Greenford    2.96 Km
Sudbury    3.46 Km
Perivale    3.46 Km
Southall    3.71 Km
Harrow on the Hill    4.36 Km
Ickenham    4.97 Km
Ruislip    5.07 Km
Brentford    5.07 Km
Ealing    5.07 Km
Hanwell    5.07 Km
Heston    5.56 Km
Pinner    5.68 Km
Eastcote    6.02 Km
Wembley    6.05 Km
Hillingdon    6.06 Km
Harrow    6.55 Km
Yiewsley    7.16 Km
Brent    7.16 Km
Cowley    7.16 Km
Hatch End    7.5 Km


Ville suivante : Northop
  D'autres en parlent aussi le 12 Septembre 2016 :

1 - Travelodge London Northolt Hotel (Angleterre) : voir 63 avis

  Réserver Travelodge London Northolt, Northolt sur TripAdvisor : consultez les 63 avis de voyageurs, 15 photos, et meilleures offres pour Travelodge London Northolt ...
https://www.tripadvisor.fr/Hotel_Review-g1566233-d2414978-Reviews-Travelodge_London_Northolt-Northolt_Greater_London_England.html

2 - Tourisme Northolt : Voyages à Northolt - monnuage.fr
  Tourisme à Northolt sur MonNuage: lieux à voir, que faire Northolt, restaurants, hôtels... Tout pour ton voyage à Northolt
http://www.monnuage.fr/voyage/royaume_uni/angleterre/northolt

3 - METAR TAF : Northolt Angleterre - fr.allmetsat.com
  METAR TAF : Observation et Prévision, Northolt Angleterre ... TAF: EGWU 291933Z 2921/3015 VRB03KT CAVOK PROB40 3002/3008 6000 HZ PROB30 3003/3007 3000 BR
http://fr.allmetsat.com/metar-taf/royaume-uni-irlande.php?icao=EGWU

4 - METAR TAF : Northolt Angleterre - fr.allmetsat.com

  METAR TAF : Observation et Prévision, Northolt Angleterre ... TAF: EGWU 031021Z 0312/0406 22014KT 9999 SCT030 TEMPO 0314/0324 21015G25KT 4000 +SHRA SCT008 PROB30 ...
http://fr.allmetsat.com/metar-taf/france.php?icao=EGWU

5 - Train Northolt Brentwood - Billet de train Greater Anglia ...
  Billets de train Northolt Brentwood. Trains Greater Anglia, Chiltern Railways. ... Angleterre, Royaume-Uni . Brentwood. Angleterre, Royaume-Uni. Rechercher .
http://www.vivanoda.fr/train/northolt-gb/brentwood-gb_s39868d17350.html

6 - Northolt (métro de Londres) — Wikipédia
  Northolt: Localisation; District de Londres: Ealing: Quartier: Northolt: Coordonnées géographiques: Gestion et exploitation; Services: Métro de Londres ...
https://fr.wikipedia.org/wiki/Northolt_(m%C3%A9tro_de_Londres)

7 - 10 Meilleurs hôtels proches gare Greenford, Northolt sur ...
  Hôtels proches de la gare Greenford, Northolt: consultez 17 941 avis de voyageurs, 131 photos, les meilleures offres et comparez les prix pour 40 hotels à Northolt ...
https://www.tripadvisor.fr/HotelsNear-g1566233-d4140398-Greenford_Station-Northolt_Greater_London_England.html

8 - METAR TAF : Northolt Angleterre - allmetsat.com
  METAR TAF : Observation et Prévision, Northolt Angleterre ... TAF: EGWU 162228Z 1700/1718 09006KT 9999 FEW040 PROB40 1703/1707 6000 HZ
http://www.allmetsat.com/fr/metar-taf/france.php?icao=EGWU

9 - Londres, Royaume Uni - Prévisions | Cartes | Actualités ...
  Consultez les dernières prévisions, cartes, actualités et alertes sur Yahoo Météo. Trouvez les prévisions locales pour Londres, Royaume Uni dans le monde entier
https://fr.news.yahoo.com/meteo/angleterre/grand-londres/northolt-30633/

10 - Location d'avions d'affaires | Londres RAF Northolt ...
  Louer un vol en jet privé au départ de ou à destination de Londres RAF Northolt Aéroport dans United Kingdom. Prix et disponibilités en temps réel sur le site ...
http://www.privatefly.fr/vol-prive/raf-northolt-airport-A4441